createdAt,value
2022-08-30T00:01:00.075Z,17.51
2022-08-30T00:03:27.715Z,17.82
2022-08-30T00:05:56.302Z,17.62
2022-08-30T00:08:22.978Z,17.33
2022-08-30T00:10:51.130Z,17.74
2022-08-30T00:13:18.957Z,17.82
2022-08-30T00:15:45.967Z,17.77
2022-08-30T00:18:12.719Z,16.74
2022-08-30T00:20:39.167Z,17.52
2022-08-30T00:23:05.926Z,17.75
2022-08-30T00:25:32.465Z,17.45
2022-08-30T00:27:58.965Z,16.99
2022-08-30T00:30:25.745Z,17.24
2022-08-30T00:32:52.352Z,17.77
2022-08-30T00:35:20.449Z,17.72
2022-08-30T00:37:48.188Z,17.60
2022-08-30T00:40:17.749Z,17.72
2022-08-30T00:42:44.545Z,17.69
2022-08-30T00:45:22.760Z,17.64
2022-08-30T00:47:49.157Z,17.34
2022-08-30T00:50:20.193Z,17.51
2022-08-30T00:52:48.893Z,17.40
2022-08-30T00:55:18.006Z,17.34
2022-08-30T00:57:46.664Z,17.27
2022-08-30T01:00:16.089Z,17.20
2022-08-30T01:02:43.207Z,16.90
2022-08-30T01:05:16.103Z,16.87
2022-08-30T01:07:43.336Z,16.65
2022-08-30T01:10:11.752Z,16.87
2022-08-30T01:12:39.684Z,16.83
2022-08-30T01:15:08.021Z,16.59
2022-08-30T01:17:34.619Z,16.50
2022-08-30T01:20:20.557Z,16.64
2022-08-30T01:22:49.954Z,16.79
2022-08-30T01:25:24.826Z,16.75
2022-08-30T01:27:58.954Z,16.59
2022-08-30T01:30:25.357Z,16.58
2022-08-30T01:32:59.004Z,16.64
2022-08-30T01:35:25.992Z,15.94
2022-08-30T01:37:52.463Z,16.21
2022-08-30T01:40:19.794Z,16.64
2022-08-30T01:42:46.278Z,16.66
2022-08-30T01:45:13.956Z,16.66
2022-08-30T01:47:40.533Z,16.68
2022-08-30T01:50:08.675Z,16.49
2022-08-30T01:52:35.247Z,16.35
2022-08-30T01:55:02.101Z,16.78
2022-08-30T01:57:28.629Z,16.79
2022-08-30T01:59:55.438Z,16.81
2022-08-30T02:02:25.859Z,16.59
2022-08-30T02:04:54.006Z,16.91
2022-08-30T02:07:21.985Z,16.98
2022-08-30T02:09:48.465Z,16.86
2022-08-30T02:12:15.267Z,16.69
2022-08-30T02:14:41.673Z,16.62
2022-08-30T02:17:10.761Z,16.67
2022-08-30T02:19:37.282Z,16.35
2022-08-30T02:22:04.302Z,16.33
2022-08-30T02:24:30.796Z,16.93
2022-08-30T02:26:57.454Z,16.93
2022-08-30T02:29:24.833Z,16.94
2022-08-30T02:31:51.377Z,16.62
2022-08-30T02:34:18.797Z,16.99
2022-08-30T02:36:45.952Z,16.96
2022-08-30T02:39:13.352Z,17.08
2022-08-30T02:41:41.836Z,17.12
2022-08-30T02:44:09.900Z,17.07
2022-08-30T02:46:36.873Z,17.14
2022-08-30T02:49:29.851Z,17.16
2022-08-30T02:51:50.928Z,17.11
2022-08-30T02:54:20.004Z,16.98
2022-08-30T02:56:47.865Z,16.56
2022-08-30T02:59:16.316Z,16.50
2022-08-30T03:01:43.083Z,16.78
2022-08-30T03:04:09.968Z,16.75
2022-08-30T03:06:37.016Z,17.04
2022-08-30T03:09:04.157Z,17.04
2022-08-30T03:11:30.601Z,15.97
2022-08-30T03:13:56.965Z,16.79
2022-08-30T03:16:23.469Z,17.03
2022-08-30T03:18:49.937Z,17.18
2022-08-30T03:21:17.058Z,16.91
2022-08-30T03:23:44.115Z,17.19
2022-08-30T03:26:13.486Z,17.17
2022-08-30T03:28:40.973Z,17.02
2022-08-30T03:31:08.787Z,17.16
2022-08-30T03:33:36.377Z,17.00
2022-08-30T03:36:02.905Z,16.90
2022-08-30T03:38:29.342Z,16.65
2022-08-30T03:40:55.699Z,16.84
2022-08-30T03:43:23.441Z,17.14
2022-08-30T03:45:50.426Z,17.07
2022-08-30T03:48:16.769Z,16.65
2022-08-30T03:50:43.225Z,16.93
2022-08-30T03:53:09.995Z,16.15
2022-08-30T03:55:36.469Z,16.74
2022-08-30T03:58:03.006Z,16.73
2022-08-30T04:00:30.502Z,16.22
2022-08-30T04:02:56.916Z,16.62
2022-08-30T04:05:23.345Z,16.05
2022-08-30T04:07:49.883Z,16.57
2022-08-30T04:10:16.546Z,16.52
2022-08-30T04:12:47.420Z,15.96
2022-08-30T04:15:17.862Z,16.41
2022-08-30T04:17:44.278Z,16.13
2022-08-30T04:20:11.351Z,16.04
2022-08-30T04:22:38.035Z,15.89
2022-08-30T04:25:05.584Z,16.06
2022-08-30T04:27:32.366Z,15.95
2022-08-30T04:30:00.137Z,16.30
2022-08-30T04:32:26.605Z,15.82
2022-08-30T04:34:57.721Z,16.21
2022-08-30T04:37:24.203Z,15.35
2022-08-30T04:39:55.058Z,16.16
2022-08-30T04:42:21.503Z,16.27
2022-08-30T04:44:47.958Z,16.24
2022-08-30T04:47:14.425Z,16.07
2022-08-30T04:49:40.772Z,15.79
2022-08-30T04:52:08.817Z,16.20
2022-08-30T04:54:37.083Z,16.18
2022-08-30T04:57:04.955Z,16.02
2022-08-30T04:59:31.397Z,16.01
2022-08-30T05:01:58.006Z,15.78
2022-08-30T05:04:24.481Z,15.68
2022-08-30T05:06:51.060Z,16.21
2022-08-30T05:09:17.614Z,16.27
2022-08-30T05:11:44.901Z,16.31
2022-08-30T05:14:11.568Z,15.95
2022-08-30T05:16:38.120Z,16.43
2022-08-30T05:19:05.284Z,16.17
2022-08-30T05:21:31.773Z,16.24
2022-08-30T05:24:00.536Z,16.69
2022-08-30T05:26:32.527Z,16.48
2022-08-30T05:28:59.260Z,16.32
2022-08-30T05:31:28.979Z,16.51
2022-08-30T05:33:56.297Z,17.02
2022-08-30T05:36:25.810Z,17.09
2022-08-30T05:38:53.604Z,17.15
2022-08-30T05:41:21.853Z,16.60
2022-08-30T05:43:48.690Z,17.11
2022-08-30T05:46:19.277Z,17.45
2022-08-30T05:48:46.893Z,17.55
2022-08-30T05:51:19.592Z,17.57
2022-08-30T05:53:46.606Z,17.81
2022-08-30T05:56:15.946Z,17.89
2022-08-30T05:58:43.432Z,17.88
2022-08-30T06:01:26.399Z,18.00
2022-08-30T06:03:53.483Z,18.01
2022-08-30T06:06:20.044Z,18.14
2022-08-30T06:08:48.451Z,17.60
2022-08-30T06:11:17.656Z,18.06
2022-08-30T06:13:44.113Z,18.24
2022-08-30T06:16:12.819Z,18.68
2022-08-30T06:18:40.136Z,18.84
2022-08-30T06:21:06.750Z,18.74
2022-08-30T06:23:33.241Z,18.09
2022-08-30T06:26:07.273Z,18.66
2022-08-30T06:28:34.512Z,18.94
2022-08-30T06:31:00.901Z,18.66
2022-08-30T06:33:27.411Z,18.76
2022-08-30T06:35:59.227Z,18.66
2022-08-30T06:38:26.826Z,19.53
2022-08-30T06:40:53.182Z,19.66
2022-08-30T06:43:20.788Z,19.50
2022-08-30T06:45:47.262Z,19.19
2022-08-30T06:48:13.777Z,19.56
2022-08-30T06:50:41.970Z,19.42
2022-08-30T06:53:09.300Z,20.00
2022-08-30T06:55:37.277Z,20.02
2022-08-30T06:58:04.733Z,19.82
2022-08-30T07:00:31.248Z,20.26
2022-08-30T07:02:58.082Z,20.08
2022-08-30T07:05:24.570Z,19.21
2022-08-30T07:07:53.295Z,20.36
2022-08-30T07:10:21.485Z,18.70
2022-08-30T07:12:48.698Z,20.06
2022-08-30T07:15:15.840Z,20.90
2022-08-30T07:18:00.632Z,21.03
2022-08-30T07:20:27.124Z,20.54
2022-08-30T07:22:53.529Z,20.64
2022-08-30T07:25:19.985Z,20.86
2022-08-30T07:27:46.682Z,20.59
2022-08-30T07:30:14.166Z,20.91
2022-08-30T07:32:40.796Z,21.12
2022-08-30T07:35:07.458Z,21.16
2022-08-30T07:37:33.842Z,21.60
2022-08-30T07:40:00.418Z,21.87
2022-08-30T07:42:26.875Z,21.97
2022-08-30T07:44:56.588Z,21.43
2022-08-30T07:47:23.518Z,21.35
2022-08-30T07:49:50.001Z,21.79
2022-08-30T07:52:16.828Z,21.89
2022-08-30T07:54:43.217Z,21.76
2022-08-30T07:57:09.697Z,21.82
2022-08-30T07:59:36.380Z,21.77
2022-08-30T08:02:03.456Z,22.47
2022-08-30T08:04:29.924Z,22.19
2022-08-30T08:06:56.385Z,22.84
2022-08-30T08:09:22.764Z,20.94
2022-08-30T08:11:49.309Z,23.19
2022-08-30T08:16:47.026Z,23.55
2022-08-30T08:19:13.709Z,22.77
2022-08-30T08:21:40.210Z,22.96
2022-08-30T08:24:07.656Z,23.55
2022-08-30T08:26:38.569Z,22.87
2022-08-30T08:29:09.857Z,23.70
2022-08-30T08:31:36.943Z,23.78
2022-08-30T08:34:05.791Z,24.04
2022-08-30T08:36:33.244Z,24.08
2022-08-30T08:39:00.338Z,24.43
2022-08-30T08:41:35.954Z,24.48
2022-08-30T08:44:18.708Z,24.28
2022-08-30T08:47:08.188Z,24.26
2022-08-30T08:49:36.069Z,24.12
2022-08-30T08:52:23.038Z,24.09
2022-08-30T08:54:59.025Z,24.63
2022-08-30T08:57:29.455Z,24.82
2022-08-30T08:59:56.065Z,24.52
2022-08-30T09:02:27.356Z,24.84
2022-08-30T09:05:01.090Z,25.01
2022-08-30T09:07:32.191Z,24.27
2022-08-30T09:10:00.552Z,24.64
2022-08-30T09:12:27.969Z,24.77
2022-08-30T09:15:02.605Z,24.24
2022-08-30T09:17:29.704Z,24.31
2022-08-30T09:19:56.022Z,24.42
2022-08-30T09:22:38.622Z,24.72
2022-08-30T09:25:08.822Z,24.42
2022-08-30T09:27:46.805Z,24.27
2022-08-30T09:30:21.082Z,24.83
2022-08-30T09:32:56.630Z,25.17
2022-08-30T09:35:25.318Z,25.22
2022-08-30T09:37:56.438Z,24.99
2022-08-30T09:40:28.306Z,25.44
2022-08-30T09:43:07.907Z,25.50
2022-08-30T09:45:39.066Z,25.52
2022-08-30T09:48:44.025Z,25.59
2022-08-30T09:54:26.454Z,24.95
2022-08-30T09:57:12.862Z,24.82
2022-08-30T10:00:02.117Z,24.72
2022-08-30T10:02:56.595Z,24.91
2022-08-30T10:05:32.501Z,24.79
2022-08-30T10:08:05.136Z,24.66
2022-08-30T10:10:59.205Z,24.64
2022-08-30T10:13:53.833Z,24.83
2022-08-30T10:16:31.501Z,24.78
2022-08-30T10:19:00.949Z,24.73
2022-08-30T10:22:24.364Z,25.04
2022-08-30T10:24:58.212Z,25.35
2022-08-30T10:27:52.985Z,25.02
2022-08-30T10:30:20.225Z,25.32
2022-08-30T10:33:02.088Z,25.66
2022-08-30T10:35:38.943Z,26.02
2022-08-30T10:38:11.929Z,25.06
2022-08-30T10:41:00.897Z,25.59
2022-08-30T10:43:38.951Z,25.59
2022-08-30T10:46:24.677Z,25.64
2022-08-30T10:48:52.793Z,26.04
2022-08-30T10:51:29.724Z,26.35
2022-08-30T10:54:01.721Z,26.33
2022-08-30T10:56:29.498Z,26.05
2022-08-30T10:58:58.335Z,26.39
2022-08-30T11:01:47.160Z,26.48
2022-08-30T11:04:17.662Z,26.65
2022-08-30T11:06:47.126Z,26.43
2022-08-30T11:09:37.935Z,24.66
2022-08-30T11:12:29.069Z,26.24
2022-08-30T11:14:55.616Z,25.73
2022-08-30T11:17:38.238Z,26.01
2022-08-30T11:20:05.405Z,26.60
2022-08-30T11:22:39.294Z,26.06
2022-08-30T11:25:16.864Z,26.74
2022-08-30T11:27:56.665Z,26.13
2022-08-30T11:30:27.365Z,26.46
2022-08-30T11:32:59.400Z,26.75
2022-08-30T11:35:36.699Z,26.96
2022-08-30T11:38:17.004Z,26.88
2022-08-30T11:40:56.102Z,26.95
2022-08-30T11:43:36.795Z,26.80
2022-08-30T11:46:28.779Z,26.65
2022-08-30T11:49:13.891Z,26.50
2022-08-30T11:55:06.988Z,27.24
2022-08-30T11:57:44.227Z,27.33
2022-08-30T12:00:30.191Z,27.06
2022-08-30T12:03:04.017Z,26.43
2022-08-30T12:05:38.433Z,25.96
2022-08-30T12:08:34.314Z,26.25
2022-08-30T12:11:35.528Z,26.55
2022-08-30T12:14:09.348Z,26.74
2022-08-30T12:17:04.601Z,26.70
2022-08-30T12:19:33.011Z,26.49
2022-08-30T12:22:04.194Z,26.91
2022-08-30T12:24:40.007Z,26.82
2022-08-30T12:27:39.141Z,26.88
2022-08-30T12:30:10.003Z,26.97
2022-08-30T12:32:47.301Z,26.56
2022-08-30T12:35:25.612Z,27.21
2022-08-30T12:38:11.911Z,27.26
2022-08-30T12:40:52.144Z,27.09
2022-08-30T12:43:38.673Z,27.05
2022-08-30T12:46:11.544Z,26.64
2022-08-30T12:48:40.540Z,26.94
2022-08-30T12:51:07.485Z,26.99
2022-08-30T12:53:38.111Z,27.24
2022-08-30T12:56:09.139Z,27.43
2022-08-30T12:58:53.659Z,27.56
2022-08-30T13:01:35.891Z,27.37
2022-08-30T13:04:22.908Z,27.55
2022-08-30T13:06:55.617Z,26.84
2022-08-30T13:09:32.461Z,27.62
2022-08-30T13:12:03.715Z,27.15
2022-08-30T13:14:33.281Z,26.84
2022-08-30T13:17:06.225Z,27.55
2022-08-30T13:19:36.938Z,27.62
2022-08-30T13:22:05.510Z,27.51
2022-08-30T13:24:31.892Z,27.40
2022-08-30T13:27:11.793Z,26.66
2022-08-30T13:29:38.378Z,27.02
2022-08-30T13:32:04.900Z,26.98
2022-08-30T13:34:33.053Z,27.25
2022-08-30T13:36:59.926Z,27.18
2022-08-30T13:39:26.825Z,27.24
2022-08-30T13:41:54.785Z,26.95
2022-08-30T13:44:22.786Z,27.19
2022-08-30T13:46:54.617Z,27.75
2022-08-30T13:52:22.530Z,27.36
2022-08-30T13:54:53.468Z,27.57
2022-08-30T14:00:15.219Z,27.25
2022-08-30T14:02:46.457Z,27.10
2022-08-30T14:05:31.050Z,27.36
2022-08-30T14:08:00.596Z,27.44
2022-08-30T14:10:30.717Z,26.99
2022-08-30T14:13:08.068Z,26.35
2022-08-30T14:15:36.335Z,27.06
2022-08-30T14:18:06.542Z,27.22
2022-08-30T14:20:35.224Z,27.00
2022-08-30T14:23:04.936Z,26.84
2022-08-30T14:25:36.738Z,27.45
2022-08-30T14:28:03.350Z,26.92
2022-08-30T14:30:29.806Z,26.87
2022-08-30T14:32:56.192Z,26.65
2022-08-30T14:35:22.837Z,26.82
2022-08-30T14:37:50.582Z,26.08
2022-08-30T14:40:18.567Z,26.65
2022-08-30T14:42:44.978Z,26.57
2022-08-30T14:45:11.901Z,26.99
2022-08-30T14:47:38.709Z,27.20
2022-08-30T14:50:05.867Z,26.65
2022-08-30T14:52:32.575Z,27.02
2022-08-30T14:55:05.183Z,26.98
2022-08-30T14:57:35.507Z,26.98
2022-08-30T15:00:06.051Z,26.22
2022-08-30T15:02:32.428Z,26.13
2022-08-30T15:04:58.802Z,26.66
2022-08-30T15:07:25.193Z,26.85
2022-08-30T15:09:51.544Z,26.36
2022-08-30T15:12:17.989Z,26.28
2022-08-30T15:14:44.782Z,26.67
2022-08-30T15:17:12.941Z,26.53
2022-08-30T15:19:39.553Z,26.50
2022-08-30T15:22:06.942Z,26.57
2022-08-30T15:24:35.045Z,26.27
2022-08-30T15:27:03.346Z,26.84
2022-08-30T15:29:31.699Z,26.71
2022-08-30T15:31:59.936Z,26.71
2022-08-30T15:34:28.033Z,26.00
2022-08-30T15:36:55.484Z,26.55
2022-08-30T15:39:21.963Z,26.33
2022-08-30T15:41:57.126Z,25.63
2022-08-30T15:44:26.286Z,25.63
2022-08-30T15:46:52.892Z,26.40
2022-08-30T15:49:22.809Z,26.55
2022-08-30T15:51:54.007Z,26.44
2022-08-30T15:54:22.873Z,25.55
2022-08-30T15:56:49.297Z,25.62
2022-08-30T15:59:17.370Z,25.86
2022-08-30T16:01:45.423Z,25.84
2022-08-30T16:04:14.849Z,25.24
2022-08-30T16:06:41.736Z,25.41
2022-08-30T16:09:10.059Z,25.90
2022-08-30T16:11:37.403Z,25.79
2022-08-30T16:14:05.625Z,25.79
2022-08-30T16:16:32.531Z,25.58
2022-08-30T16:18:59.195Z,25.12
2022-08-30T16:21:30.795Z,25.43
2022-08-30T16:23:58.914Z,25.16
2022-08-30T16:26:26.785Z,25.07
2022-08-30T16:28:54.789Z,24.37
2022-08-30T16:31:22.587Z,25.43
2022-08-30T16:33:52.762Z,25.55
2022-08-30T16:36:21.274Z,25.44
2022-08-30T16:38:48.794Z,25.33
2022-08-30T16:41:21.489Z,24.82
2022-08-30T16:43:49.583Z,25.05
2022-08-30T16:46:23.225Z,25.05
2022-08-30T16:48:56.281Z,24.75
2022-08-30T16:51:24.719Z,24.83
2022-08-30T16:53:54.888Z,24.86
2022-08-30T16:56:24.380Z,24.68
2022-08-30T16:59:00.449Z,24.34
2022-08-30T17:01:28.871Z,23.75
2022-08-30T17:03:55.611Z,24.29
2022-08-30T17:06:22.057Z,23.85
2022-08-30T17:08:48.492Z,23.67
2022-08-30T17:11:22.340Z,24.21
2022-08-30T17:13:49.303Z,24.15
2022-08-30T17:16:27.258Z,24.11
2022-08-30T17:18:54.270Z,23.54
2022-08-30T17:21:20.651Z,23.77
2022-08-30T17:23:48.546Z,23.46
2022-08-30T17:26:16.329Z,23.68
2022-08-30T17:28:43.573Z,23.50
2022-08-30T17:31:10.940Z,23.70
2022-08-30T17:33:39.726Z,23.37
2022-08-30T17:36:07.580Z,23.76
2022-08-30T17:38:34.646Z,23.69
2022-08-30T17:41:06.606Z,23.17
2022-08-30T17:43:35.226Z,23.56
2022-08-30T17:46:14.427Z,23.06
2022-08-30T17:48:43.080Z,23.03
2022-08-30T17:51:09.589Z,23.31
2022-08-30T17:53:36.785Z,22.75
2022-08-30T17:56:04.841Z,23.28
2022-08-30T17:58:31.909Z,22.84
2022-08-30T18:01:11.579Z,23.09
2022-08-30T18:03:39.400Z,23.06
2022-08-30T18:06:06.690Z,22.74
2022-08-30T18:08:34.377Z,22.97
2022-08-30T18:11:01.093Z,21.81
2022-08-30T18:13:27.466Z,22.41
2022-08-30T18:15:53.943Z,22.82
2022-08-30T18:18:21.081Z,22.37
2022-08-30T18:20:47.886Z,22.38
2022-08-30T18:23:14.435Z,22.67
2022-08-30T18:25:42.070Z,22.21
2022-08-30T18:28:08.817Z,22.28
2022-08-30T18:30:41.445Z,21.72
2022-08-30T18:33:08.681Z,22.06
2022-08-30T18:35:36.366Z,22.52
2022-08-30T18:38:03.255Z,22.37
2022-08-30T18:40:29.706Z,22.14
2022-08-30T18:42:56.197Z,22.24
2022-08-30T18:45:23.839Z,22.07
2022-08-30T18:47:50.475Z,22.19
2022-08-30T18:50:17.112Z,22.29
2022-08-30T18:52:45.088Z,21.23
2022-08-30T18:55:11.733Z,21.91
2022-08-30T18:57:38.236Z,22.15
2022-08-30T19:00:05.048Z,22.04
2022-08-30T19:02:31.910Z,21.57
2022-08-30T19:04:59.091Z,21.72
2022-08-30T19:07:28.955Z,21.81
2022-08-30T19:10:00.667Z,21.87
2022-08-30T19:12:28.053Z,21.11
2022-08-30T19:14:56.164Z,21.81
2022-08-30T19:17:22.909Z,21.66
2022-08-30T19:19:52.406Z,21.44
2022-08-30T19:22:21.222Z,20.89
2022-08-30T19:24:49.770Z,21.78
2022-08-30T19:27:17.404Z,21.80
2022-08-30T19:29:44.597Z,21.80
2022-08-30T19:32:11.950Z,21.75
2022-08-30T19:34:39.666Z,21.71
2022-08-30T19:37:06.124Z,21.60
2022-08-30T19:39:32.865Z,21.31
2022-08-30T19:41:59.313Z,21.31
2022-08-30T19:44:26.724Z,21.44
2022-08-30T19:46:53.762Z,21.39
2022-08-30T19:49:22.743Z,21.38
2022-08-30T19:51:49.141Z,21.20
2022-08-30T19:54:15.611Z,20.71
2022-08-30T19:56:43.928Z,21.44
2022-08-30T20:01:56.891Z,21.40
2022-08-30T20:04:23.354Z,21.39
2022-08-30T20:06:50.601Z,20.94
2022-08-30T20:09:17.122Z,21.26
2022-08-30T20:11:43.621Z,20.76
2022-08-30T20:14:13.532Z,21.20
2022-08-30T20:16:40.394Z,20.87
2022-08-30T20:19:09.534Z,21.21
2022-08-30T20:21:37.039Z,20.41
2022-08-30T20:24:04.140Z,21.10
2022-08-30T20:26:33.769Z,20.98
2022-08-30T20:29:01.747Z,20.19
2022-08-30T20:31:28.840Z,20.50
2022-08-30T20:33:55.382Z,20.87
2022-08-30T20:36:21.767Z,20.21
2022-08-30T20:38:48.555Z,20.06
2022-08-30T20:41:16.938Z,20.97
2022-08-30T20:43:44.016Z,20.86
2022-08-30T20:46:16.418Z,20.63
2022-08-30T20:48:43.524Z,20.93
2022-08-30T20:51:15.712Z,20.68
2022-08-30T20:53:42.877Z,20.36
2022-08-30T20:56:18.705Z,20.91
2022-08-30T20:58:45.760Z,20.92
2022-08-30T21:01:13.643Z,19.98
2022-08-30T21:03:41.301Z,20.87
2022-08-30T21:06:08.521Z,20.85
2022-08-30T21:08:35.041Z,20.37
2022-08-30T21:11:01.566Z,20.40
2022-08-30T21:13:28.071Z,20.39
2022-08-30T21:16:00.251Z,20.31
2022-08-30T21:18:29.604Z,20.74
2022-08-30T21:20:56.864Z,20.58
2022-08-30T21:23:23.669Z,20.23
2022-08-30T21:25:50.374Z,20.30
2022-08-30T21:28:17.932Z,20.53
2022-08-30T21:30:44.597Z,20.63
2022-08-30T21:33:11.068Z,19.95
2022-08-30T21:35:56.323Z,20.62
2022-08-30T21:38:22.798Z,20.58
2022-08-30T21:40:49.229Z,20.18
2022-08-30T21:43:16.115Z,19.64
2022-08-30T21:45:44.265Z,20.51
2022-08-30T21:48:12.830Z,20.49
2022-08-30T21:50:40.943Z,20.01
2022-08-30T21:53:07.482Z,20.31
2022-08-30T21:55:33.893Z,20.45
2022-08-30T21:58:00.490Z,20.44
2022-08-30T22:00:26.901Z,20.42
2022-08-30T22:02:53.470Z,20.06
2022-08-30T22:05:20.489Z,20.39
2022-08-30T22:07:46.940Z,19.75
2022-08-30T22:10:15.702Z,20.37
2022-08-30T22:12:42.090Z,20.00
2022-08-30T22:15:09.156Z,20.19
2022-08-30T22:17:35.592Z,20.08
2022-08-30T22:20:02.131Z,19.34
2022-08-30T22:22:28.597Z,19.78
2022-08-30T22:24:54.953Z,20.01
2022-08-30T22:27:21.642Z,19.88
2022-08-30T22:29:48.072Z,19.95
2022-08-30T22:32:14.618Z,20.19
2022-08-30T22:34:40.997Z,19.81
2022-08-30T22:37:07.852Z,19.34
2022-08-30T22:39:34.273Z,20.02
2022-08-30T22:42:00.723Z,19.73
2022-08-30T22:44:27.224Z,19.36
2022-08-30T22:46:53.666Z,19.81
2022-08-30T22:49:20.441Z,20.10
2022-08-30T22:51:46.981Z,19.80
2022-08-30T22:54:13.892Z,20.10
2022-08-30T22:56:40.321Z,19.86
2022-08-30T22:59:07.047Z,19.79
2022-08-30T23:01:37.935Z,20.09
2022-08-30T23:04:06.737Z,19.15
2022-08-30T23:06:33.621Z,19.58
2022-08-30T23:09:00.123Z,19.81
2022-08-30T23:11:26.994Z,20.04
2022-08-30T23:13:54.274Z,20.01
2022-08-30T23:16:21.401Z,19.87
2022-08-30T23:18:47.993Z,19.84
2022-08-30T23:21:18.204Z,19.85
2022-08-30T23:24:03.714Z,19.96
2022-08-30T23:26:48.728Z,19.73
2022-08-30T23:29:34.636Z,19.85
2022-08-30T23:32:20.499Z,19.50
2022-08-30T23:35:05.262Z,19.58
2022-08-30T23:37:52.944Z,20.07
2022-08-30T23:40:39.742Z,19.97
2022-08-30T23:43:25.620Z,19.97
2022-08-30T23:46:10.635Z,19.70
2022-08-30T23:48:59.836Z,19.56
2022-08-30T23:51:44.763Z,19.69
2022-08-30T23:54:29.570Z,19.17
2022-08-30T23:57:14.930Z,19.49
2022-08-30T23:59:59.822Z,19.36
